Main page
METAR-TAF:

METAR-TAF

Airports :

Pirassununga, São Paulo, Brazil

latitude: 21-59S, longitude: 047-20W, elevation: 597 m

Current weather observation

The report was made 1 hour and 22 minutes ago, at 09:00 UTC
Wind 4 kt from the North
Temperature 18°C
Humidity 100%
Pressure 1015 hPa
Visibility: 2100 m
Broken clouds at a height of 2000 ft
light rain, mist

METAR: SBYS 140900Z 01004KT 2100 -RA BR BKN020 18/18 Q1015

Time: 08:22 (10:22 UTC)

Forecast

The report was made 6 hours and 22 minutes ago, at 04:00 UTC
Forecast valid from 14 at 06 UTC to 14 at 18 UTC
Wind 7 kt from the East/Northeast
Visibility 10 km or more
no clouds below 1500 m and no cumulonimbus

TAF: SBYS 140400Z 1406/1418 06007KT CAVOK TN16/1408Z TX32/1417Z RMK PED

Weather observations and forecasts of more than 4000 airports (METAR and TAF reports).

The available stations are represented by yellow and red dots on the map.

Hover mouse over dot to see the name of the station.

Then click to see weather observations and forecasts.

To change the map : click on the green buttons with a black cross to zoom in, on the green button with a dash to zoom out, or on the green arrows for adjacent maps.


METAR-TAF: